sensor_id;sensor_type;location;lat;lon;timestamp;pressure;altitude;pressure_sealevel;temperature;humidity
35507;BME280;36461;52.018;21.036;2024-03-23T00:55:27;99510.20;;;9.12;91.23
35507;BME280;36461;52.018;21.036;2024-03-23T00:57:55;99503.57;;;9.10;91.39
35507;BME280;36461;52.018;21.036;2024-03-23T01:00:23;99507.73;;;9.09;91.49
35507;BME280;36461;52.018;21.036;2024-03-23T01:02:51;99500.16;;;9.08;91.75
35507;BME280;36461;52.018;21.036;2024-03-23T01:05:19;99495.63;;;9.10;91.95
35507;BME280;36461;52.018;21.036;2024-03-23T01:07:47;99494.37;;;9.11;91.98
35507;BME280;36461;52.018;21.036;2024-03-23T01:10:15;99489.65;;;9.12;92.05
35507;BME280;36461;52.018;21.036;2024-03-23T01:12:43;99482.18;;;9.13;92.03
35507;BME280;36461;52.018;21.036;2024-03-23T01:15:11;99478.59;;;9.13;92.14
35507;BME280;36461;52.018;21.036;2024-03-23T01:17:39;99476.91;;;9.11;92.21
35507;BME280;36461;52.018;21.036;2024-03-23T01:20:08;99476.10;;;9.10;92.28
35507;BME280;36461;52.018;21.036;2024-03-23T01:22:36;99474.94;;;9.09;92.24
35507;BME280;36461;52.018;21.036;2024-03-23T01:25:04;99471.92;;;9.07;92.25
35507;BME280;36461;52.018;21.036;2024-03-23T01:27:32;99473.10;;;9.07;92.55
35507;BME280;36461;52.018;21.036;2024-03-23T01:30:00;99465.13;;;9.08;92.90
35507;BME280;36461;52.018;21.036;2024-03-23T01:32:28;99463.98;;;9.11;92.87
35507;BME280;36461;52.018;21.036;2024-03-23T01:34:56;99463.25;;;9.12;92.95
35507;BME280;36461;52.018;21.036;2024-03-23T01:37:24;99461.05;;;9.11;92.98
35507;BME280;36461;52.018;21.036;2024-03-23T01:39:52;99456.93;;;9.10;92.98
35507;BME280;36461;52.018;21.036;2024-03-23T01:42:20;99456.24;;;9.10;93.22
35507;BME280;36461;52.018;21.036;2024-03-23T01:44:48;99457.66;;;9.09;93.18
35507;BME280;36461;52.018;21.036;2024-03-23T01:47:16;99453.91;;;9.08;93.24
35507;BME280;36461;52.018;21.036;2024-03-23T01:49:45;99456.25;;;9.10;93.54
35507;BME280;36461;52.018;21.036;2024-03-23T01:52:13;99456.50;;;9.08;93.26
35507;BME280;36461;52.018;21.036;2024-03-23T01:54:42;99451.90;;;9.07;93.38
35507;BME280;36461;52.018;21.036;2024-03-23T01:57:11;99453.60;;;9.07;93.47
35507;BME280;36461;52.018;21.036;2024-03-23T01:59:40;99455.14;;;9.07;93.50
35507;BME280;36461;52.018;21.036;2024-03-23T02:02:09;99451.55;;;9.07;93.59
35507;BME280;36461;52.018;21.036;2024-03-23T02:04:37;99451.52;;;9.08;93.75
35507;BME280;36461;52.018;21.036;2024-03-23T02:07:08;99451.17;;;9.07;93.68
35507;BME280;36461;52.018;21.036;2024-03-23T02:09:37;99453.92;;;9.07;93.85
35507;BME280;36461;52.018;21.036;2024-03-23T02:12:06;99445.81;;;9.08;94.01
35507;BME280;36461;52.018;21.036;2024-03-23T02:14:34;99441.00;;;9.07;93.82
35507;BME280;36461;52.018;21.036;2024-03-23T02:17:03;99436.16;;;9.08;94.21
35507;BME280;36461;52.018;21.036;2024-03-23T02:19:31;99431.73;;;9.06;93.94
35507;BME280;36461;52.018;21.036;2024-03-23T02:21:59;99430.51;;;9.06;94.08
35507;BME280;36461;52.018;21.036;2024-03-23T02:24:29;99428.27;;;9.06;94.20
35507;BME280;36461;52.018;21.036;2024-03-23T02:26:57;99430.35;;;9.06;94.46
35507;BME280;36461;52.018;21.036;2024-03-23T02:29:25;99432.04;;;9.07;94.45
35507;BME280;36461;52.018;21.036;2024-03-23T02:31:53;99432.04;;;9.07;94.34
35507;BME280;36461;52.018;21.036;2024-03-23T02:34:21;99426.91;;;9.11;94.79
35507;BME280;36461;52.018;21.036;2024-03-23T02:36:49;99428.39;;;9.12;94.68
35507;BME280;36461;52.018;21.036;2024-03-23T02:39:17;99428.02;;;9.13;94.68
35507;BME280;36461;52.018;21.036;2024-03-23T02:41:45;99426.61;;;9.13;94.62
35507;BME280;36461;52.018;21.036;2024-03-23T02:44:13;99424.60;;;9.16;95.02
35507;BME280;36461;52.018;21.036;2024-03-23T02:46:41;99417.20;;;9.15;94.78
35507;BME280;36461;52.018;21.036;2024-03-23T02:49:10;99412.92;;;9.14;94.83
35507;BME280;36461;52.018;21.036;2024-03-23T02:51:38;99412.77;;;9.14;94.97
35507;BME280;36461;52.018;21.036;2024-03-23T02:54:06;99413.98;;;9.14;94.88
35507;BME280;36461;52.018;21.036;2024-03-23T02:56:34;99415.27;;;9.16;94.91
35507;BME280;36461;52.018;21.036;2024-03-23T02:59:02;99410.83;;;9.15;94.92
35507;BME280;36461;52.018;21.036;2024-03-23T03:01:30;99410.88;;;9.14;94.93
35507;BME280;36461;52.018;21.036;2024-03-23T03:03:58;99411.20;;;9.14;95.21
35507;BME280;36461;52.018;21.036;2024-03-23T03:06:26;99409.53;;;9.17;95.45
35507;BME280;36461;52.018;21.036;2024-03-23T03:08:54;99398.07;;;9.19;95.63
35507;BME280;36461;52.018;21.036;2024-03-23T03:11:23;99388.11;;;9.17;95.58
35507;BME280;36461;52.018;21.036;2024-03-23T03:13:51;99381.41;;;9.13;95.67
35507;BME280;36461;52.018;21.036;2024-03-23T03:16:19;99378.70;;;9.11;95.78
35507;BME280;36461;52.018;21.036;2024-03-23T03:18:47;99377.46;;;9.08;95.88
35507;BME280;36461;52.018;21.036;2024-03-23T03:21:15;99378.41;;;9.10;96.04
35507;BME280;36461;52.018;21.036;2024-03-23T03:23:44;99381.28;;;9.07;96.54
35507;BME280;36461;52.018;21.036;2024-03-23T03:26:12;99386.84;;;9.06;96.56
35507;BME280;36461;52.018;21.036;2024-03-23T03:28:40;99387.23;;;9.05;96.59
35507;BME280;36461;52.018;21.036;2024-03-23T03:31:08;99387.31;;;9.07;96.48
35507;BME280;36461;52.018;21.036;2024-03-23T03:33:36;99385.84;;;9.06;96.61
35507;BME280;36461;52.018;21.036;2024-03-23T03:36:05;99389.81;;;9.05;96.69
35507;BME280;36461;52.018;21.036;2024-03-23T03:38:33;99387.90;;;9.06;97.00
35507;BME280;36461;52.018;21.036;2024-03-23T03:41:03;99386.60;;;9.04;96.91
35507;BME280;36461;52.018;21.036;2024-03-23T03:43:31;99380.23;;;9.04;97.10
35507;BME280;36461;52.018;21.036;2024-03-23T03:46:00;99377.07;;;9.05;97.15
35507;BME280;36461;52.018;21.036;2024-03-23T03:48:28;99381.71;;;9.10;97.10
35507;BME280;36461;52.018;21.036;2024-03-23T03:50:57;99380.33;;;9.10;97.35
35507;BME280;36461;52.018;21.036;2024-03-23T03:53:24;99375.14;;;9.10;97.07
35507;BME280;36461;52.018;21.036;2024-03-23T03:55:53;99373.41;;;9.10;96.89
35507;BME280;36461;52.018;21.036;2024-03-23T03:58:21;99376.73;;;9.13;97.17
35507;BME280;36461;52.018;21.036;2024-03-23T04:00:49;99376.23;;;9.13;96.87
35507;BME280;36461;52.018;21.036;2024-03-23T04:03:16;99374.71;;;9.12;96.98
35507;BME280;36461;52.018;21.036;2024-03-23T04:05:55;99370.91;;;9.12;96.97
35507;BME280;36461;52.018;21.036;2024-03-23T04:08:24;99370.05;;;9.12;96.82
35507;BME280;36461;52.018;21.036;2024-03-23T04:10:52;99373.61;;;9.09;96.77
35507;BME280;36461;52.018;21.036;2024-03-23T04:13:20;99374.27;;;9.10;96.95
35507;BME280;36461;52.018;21.036;2024-03-23T04:15:48;99370.50;;;9.10;96.89
35507;BME280;36461;52.018;21.036;2024-03-23T04:18:16;99369.27;;;9.10;97.10
35507;BME280;36461;52.018;21.036;2024-03-23T04:20:44;99365.03;;;9.12;97.29
35507;BME280;36461;52.018;21.036;2024-03-23T04:23:12;99365.95;;;9.15;97.44
35507;BME280;36461;52.018;21.036;2024-03-23T04:25:40;99362.98;;;9.16;97.23
35507;BME280;36461;52.018;21.036;2024-03-23T04:28:08;99359.50;;;9.16;97.31
35507;BME280;36461;52.018;21.036;2024-03-23T04:30:36;99358.00;;;9.15;97.17
35507;BME280;36461;52.018;21.036;2024-03-23T04:33:04;99350.73;;;9.15;97.03
35507;BME280;36461;52.018;21.036;2024-03-23T04:35:33;99349.39;;;9.15;97.14
35507;BME280;36461;52.018;21.036;2024-03-23T04:38:01;99339.64;;;9.13;97.25
35507;BME280;36461;52.018;21.036;2024-03-23T04:40:29;99337.35;;;9.14;97.48
35507;BME280;36461;52.018;21.036;2024-03-23T04:42:57;99334.41;;;9.18;97.55
35507;BME280;36461;52.018;21.036;2024-03-23T04:45:25;99336.46;;;9.18;97.67
35507;BME280;36461;52.018;21.036;2024-03-23T04:47:53;99336.20;;;9.16;97.48
35507;BME280;36461;52.018;21.036;2024-03-23T04:50:21;99332.47;;;9.15;97.50
35507;BME280;36461;52.018;21.036;2024-03-23T04:52:49;99330.48;;;9.13;97.55
35507;BME280;36461;52.018;21.036;2024-03-23T04:55:17;99334.46;;;9.13;97.68
35507;BME280;36461;52.018;21.036;2024-03-23T04:57:45;99327.75;;;9.16;97.82
35507;BME280;36461;52.018;21.036;2024-03-23T05:00:14;99325.08;;;9.18;97.78
35507;BME280;36461;52.018;21.036;2024-03-23T05:02:44;99323.65;;;9.19;97.57
35507;BME280;36461;52.018;21.036;2024-03-23T05:05:13;99317.58;;;9.20;97.74
35507;BME280;36461;52.018;21.036;2024-03-23T05:07:41;99315.90;;;9.23;97.64
35507;BME280;36461;52.018;21.036;2024-03-23T05:10:10;99316.66;;;9.25;97.76
35507;BME280;36461;52.018;21.036;2024-03-23T05:12:39;99312.06;;;9.27;97.69
35507;BME280;36461;52.018;21.036;2024-03-23T05:15:07;99320.23;;;9.31;97.95
35507;BME280;36461;52.018;21.036;2024-03-23T05:17:35;99314.89;;;9.34;97.79
35507;BME280;36461;52.018;21.036;2024-03-23T05:20:05;99310.49;;;9.36;98.02
35507;BME280;36461;52.018;21.036;2024-03-23T05:22:38;99312.20;;;9.40;97.98
35507;BME280;36461;52.018;21.036;2024-03-23T05:25:07;99308.27;;;9.43;97.78
35507;BME280;36461;52.018;21.036;2024-03-23T05:27:35;99303.48;;;9.50;98.10
35507;BME280;36461;52.018;21.036;2024-03-23T05:30:05;99302.23;;;9.54;97.92
35507;BME280;36461;52.018;21.036;2024-03-23T05:32:33;99304.35;;;9.57;97.99
35507;BME280;36461;52.018;21.036;2024-03-23T05:35:01;99302.85;;;9.60;97.82
35507;BME280;36461;52.018;21.036;2024-03-23T05:37:30;99299.95;;;9.63;97.95
35507;BME280;36461;52.018;21.036;2024-03-23T05:40:01;99297.29;;;9.65;97.70
35507;BME280;36461;52.018;21.036;2024-03-23T05:42:31;99300.02;;;9.66;97.54
35507;BME280;36461;52.018;21.036;2024-03-23T05:44:59;99297.86;;;9.67;97.64
35507;BME280;36461;52.018;21.036;2024-03-23T05:47:27;99294.48;;;9.69;97.77
35507;BME280;36461;52.018;21.036;2024-03-23T05:49:56;99291.88;;;9.69;97.53
35507;BME280;36461;52.018;21.036;2024-03-23T05:52:24;99293.47;;;9.69;97.38
35507;BME280;36461;52.018;21.036;2024-03-23T05:54:53;99293.12;;;9.69;97.48
35507;BME280;36461;52.018;21.036;2024-03-23T05:57:21;99295.45;;;9.71;97.63
35507;BME280;36461;52.018;21.036;2024-03-23T05:59:49;99292.68;;;9.71;97.50
35507;BME280;36461;52.018;21.036;2024-03-23T06:02:17;99295.29;;;9.70;97.56
35507;BME280;36461;52.018;21.036;2024-03-23T06:04:45;99294.98;;;9.69;97.46
35507;BME280;36461;52.018;21.036;2024-03-23T06:07:14;99287.74;;;9.69;97.40
35507;BME280;36461;52.018;21.036;2024-03-23T06:09:42;99284.80;;;9.69;97.51
35507;BME280;36461;52.018;21.036;2024-03-23T06:12:10;99280.48;;;9.69;97.67
35507;BME280;36461;52.018;21.036;2024-03-23T06:14:38;99272.39;;;9.68;97.69
35507;BME280;36461;52.018;21.036;2024-03-23T06:17:06;99273.09;;;9.69;97.79
35507;BME280;36461;52.018;21.036;2024-03-23T06:19:35;99278.88;;;9.70;97.61
35507;BME280;36461;52.018;21.036;2024-03-23T06:22:03;99282.48;;;9.71;97.49
35507;BME280;36461;52.018;21.036;2024-03-23T06:24:34;99285.45;;;9.74;97.91
35507;BME280;36461;52.018;21.036;2024-03-23T06:27:03;99290.69;;;9.77;98.04
35507;BME280;36461;52.018;21.036;2024-03-23T06:29:32;99288.39;;;9.78;97.91
35507;BME280;36461;52.018;21.036;2024-03-23T06:32:00;99287.48;;;9.75;97.79
35507;BME280;36461;52.018;21.036;2024-03-23T06:34:28;99282.05;;;9.73;97.78
35507;BME280;36461;52.018;21.036;2024-03-23T06:36:56;99279.29;;;9.69;97.87
35507;BME280;36461;52.018;21.036;2024-03-23T06:39:24;99275.54;;;9.68;98.18
35507;BME280;36461;52.018;21.036;2024-03-23T06:41:53;99275.97;;;9.70;98.47
35507;BME280;36461;52.018;21.036;2024-03-23T06:44:22;99277.44;;;9.72;98.57
35507;BME280;36461;52.018;21.036;2024-03-23T06:46:50;99277.46;;;9.75;98.40
35507;BME280;36461;52.018;21.036;2024-03-23T06:49:18;99269.73;;;9.78;98.68
35507;BME280;36461;52.018;21.036;2024-03-23T06:51:49;99259.70;;;9.78;98.47
35507;BME280;36461;52.018;21.036;2024-03-23T06:54:19;99250.23;;;9.80;98.75
35507;BME280;36461;52.018;21.036;2024-03-23T06:56:47;99251.08;;;9.81;98.76
35507;BME280;36461;52.018;21.036;2024-03-23T06:59:15;99256.60;;;9.81;98.87
35507;BME280;36461;52.018;21.036;2024-03-23T07:01:43;99250.87;;;9.86;98.93
35507;BME280;36461;52.018;21.036;2024-03-23T07:04:11;99247.67;;;9.87;98.83
35507;BME280;36461;52.018;21.036;2024-03-23T07:06:43;99251.21;;;9.89;99.07
35507;BME280;36461;52.018;21.036;2024-03-23T07:09:12;99254.44;;;9.95;98.93
35507;BME280;36461;52.018;21.036;2024-03-23T07:11:40;99247.88;;;9.94;98.71
35507;BME280;36461;52.018;21.036;2024-03-23T07:14:08;99245.81;;;9.94;98.53
35507;BME280;36461;52.018;21.036;2024-03-23T07:16:36;99240.23;;;9.95;98.71
35507;BME280;36461;52.018;21.036;2024-03-23T07:19:05;99242.67;;;9.98;98.58
35507;BME280;36461;52.018;21.036;2024-03-23T07:21:33;99243.48;;;10.03;98.88
35507;BME280;36461;52.018;21.036;2024-03-23T07:24:01;99240.29;;;10.05;98.58
35507;BME280;36461;52.018;21.036;2024-03-23T07:26:29;99237.73;;;10.04;98.12
35507;BME280;36461;52.018;21.036;2024-03-23T07:28:57;99236.08;;;10.06;98.24
35507;BME280;36461;52.018;21.036;2024-03-23T07:31:25;99234.88;;;10.09;98.16
35507;BME280;36461;52.018;21.036;2024-03-23T07:33:53;99227.16;;;10.08;98.27
35507;BME280;36461;52.018;21.036;2024-03-23T07:36:21;99226.88;;;10.10;98.09
35507;BME280;36461;52.018;21.036;2024-03-23T07:38:49;99225.55;;;10.16;98.47
35507;BME280;36461;52.018;21.036;2024-03-23T07:41:26;99218.48;;;10.23;98.18
35507;BME280;36461;52.018;21.036;2024-03-23T07:43:55;99215.38;;;10.27;98.10
35507;BME280;36461;52.018;21.036;2024-03-23T07:46:23;99216.34;;;10.31;98.47
35507;BME280;36461;52.018;21.036;2024-03-23T07:48:53;99213.20;;;10.36;98.13
35507;BME280;36461;52.018;21.036;2024-03-23T07:51:22;99208.23;;;10.42;98.18
35507;BME280;36461;52.018;21.036;2024-03-23T07:53:50;99206.34;;;10.45;98.01
35507;BME280;36461;52.018;21.036;2024-03-23T07:56:20;99202.16;;;10.49;97.69
35507;BME280;36461;52.018;21.036;2024-03-23T07:58:49;99205.80;;;10.56;98.07
35507;BME280;36461;52.018;21.036;2024-03-23T08:01:17;99198.66;;;10.63;98.00
35507;BME280;36461;52.018;21.036;2024-03-23T08:03:46;99188.90;;;10.65;97.50
35507;BME280;36461;52.018;21.036;2024-03-23T08:06:15;99189.46;;;10.74;97.55
35507;BME280;36461;52.018;21.036;2024-03-23T08:08:46;99183.80;;;10.87;97.48
35507;BME280;36461;52.018;21.036;2024-03-23T08:11:14;99177.58;;;11.03;97.55
35507;BME280;36461;52.018;21.036;2024-03-23T08:13:45;99175.16;;;11.25;97.06
35507;BME280;36461;52.018;21.036;2024-03-23T08:16:13;99172.67;;;11.36;96.52
35507;BME280;36461;52.018;21.036;2024-03-23T08:18:41;99177.14;;;11.49;96.44
35507;BME280;36461;52.018;21.036;2024-03-23T08:21:10;99180.31;;;11.61;96.04
35507;BME280;36461;52.018;21.036;2024-03-23T08:23:38;99181.05;;;11.63;95.48
35507;BME280;36461;52.018;21.036;2024-03-23T08:26:12;99175.87;;;11.69;95.11
35507;BME280;36461;52.018;21.036;2024-03-23T08:28:41;99167.59;;;11.84;95.07
35507;BME280;36461;52.018;21.036;2024-03-23T08:31:13;99163.08;;;11.93;94.28
35507;BME280;36461;52.018;21.036;2024-03-23T08:33:43;99159.83;;;12.02;94.10
35507;BME280;36461;52.018;21.036;2024-03-23T08:36:11;99151.02;;;11.98;93.31
35507;BME280;36461;52.018;21.036;2024-03-23T08:38:42;99148.97;;;11.95;93.29
35507;BME280;36461;52.018;21.036;2024-03-23T08:41:11;99141.61;;;11.92;92.86
35507;BME280;36461;52.018;21.036;2024-03-23T08:43:42;99135.30;;;11.94;92.95
35507;BME280;36461;52.018;21.036;2024-03-23T08:46:15;99131.54;;;11.93;92.93
35507;BME280;36461;52.018;21.036;2024-03-23T08:48:45;99126.63;;;12.03;93.09
35507;BME280;36461;52.018;21.036;2024-03-23T08:51:15;99117.41;;;12.19;92.97
35507;BME280;36461;52.018;21.036;2024-03-23T08:53:45;99108.37;;;12.28;92.71
35507;BME280;36461;52.018;21.036;2024-03-23T08:56:13;99102.70;;;12.30;92.70
35507;BME280;36461;52.018;21.036;2024-03-23T08:58:41;99095.27;;;12.35;92.46
35507;BME280;36461;52.018;21.036;2024-03-23T09:01:11;99086.52;;;12.39;92.36
35507;BME280;36461;52.018;21.036;2024-03-23T09:03:42;99082.45;;;12.49;92.47
35507;BME280;36461;52.018;21.036;2024-03-23T09:06:13;99083.47;;;12.53;91.66
35507;BME280;36461;52.018;21.036;2024-03-23T09:08:41;99085.61;;;12.54;91.31
35507;BME280;36461;52.018;21.036;2024-03-23T09:11:12;99077.77;;;12.66;91.17
35507;BME280;36461;52.018;21.036;2024-03-23T09:13:40;99076.45;;;12.85;91.04
35507;BME280;36461;52.018;21.036;2024-03-23T09:16:10;99068.58;;;12.91;89.82
35507;BME280;36461;52.018;21.036;2024-03-23T09:18:38;99067.01;;;12.83;89.40
35507;BME280;36461;52.018;21.036;2024-03-23T09:21:13;99069.54;;;12.79;89.14
35507;BME280;36461;52.018;21.036;2024-03-23T09:23:43;99070.42;;;12.75;89.18
35507;BME280;36461;52.018;21.036;2024-03-23T09:26:12;99064.60;;;12.77;89.26
35507;BME280;36461;52.018;21.036;2024-03-23T09:28:41;99064.23;;;12.72;88.71
35507;BME280;36461;52.018;21.036;2024-03-23T09:31:09;99049.52;;;12.66;88.66
35507;BME280;36461;52.018;21.036;2024-03-23T09:33:42;99049.11;;;12.67;89.07
35507;BME280;36461;52.018;21.036;2024-03-23T09:36:11;99041.64;;;12.81;89.32
35507;BME280;36461;52.018;21.036;2024-03-23T09:38:41;99040.23;;;12.89;88.93
35507;BME280;36461;52.018;21.036;2024-03-23T09:41:09;99038.58;;;13.04;88.84
35507;BME280;36461;52.018;21.036;2024-03-23T09:43:37;99036.65;;;13.26;88.95
35507;BME280;36461;52.018;21.036;2024-03-23T09:46:05;99031.21;;;13.52;88.45
35507;BME280;36461;52.018;21.036;2024-03-23T09:48:34;99027.61;;;13.72;87.68
35507;BME280;36461;52.018;21.036;2024-03-23T09:51:02;99026.83;;;13.89;86.56
35507;BME280;36461;52.018;21.036;2024-03-23T09:53:31;99018.58;;;14.03;85.69
35507;BME280;36461;52.018;21.036;2024-03-23T09:56:00;99012.14;;;14.18;85.24
35507;BME280;36461;52.018;21.036;2024-03-23T09:58:28;99011.28;;;14.43;85.04
35507;BME280;36461;52.018;21.036;2024-03-23T10:00:57;99008.54;;;14.73;84.51
35507;BME280;36461;52.018;21.036;2024-03-23T10:03:25;99000.48;;;14.93;83.72
35507;BME280;36461;52.018;21.036;2024-03-23T10:06:03;98993.29;;;15.17;83.92
35507;BME280;36461;52.018;21.036;2024-03-23T10:08:31;98985.61;;;15.30;83.55
35507;BME280;36461;52.018;21.036;2024-03-23T10:11:14;98975.29;;;15.23;81.40
35507;BME280;36461;52.018;21.036;2024-03-23T10:13:43;98971.65;;;15.13;81.39
35507;BME280;36461;52.018;21.036;2024-03-23T10:16:24;98965.39;;;15.18;81.64
35507;BME280;36461;52.018;21.036;2024-03-23T10:18:52;98952.64;;;15.23;80.76
35507;BME280;36461;52.018;21.036;2024-03-23T10:21:20;98933.34;;;15.17;80.23
35507;BME280;36461;52.018;21.036;2024-03-23T10:23:48;98923.58;;;15.06;79.65
35507;BME280;36461;52.018;21.036;2024-03-23T10:26:24;98914.34;;;14.89;79.91
35507;BME280;36461;52.018;21.036;2024-03-23T10:31:22;98897.09;;;14.60;79.53
35507;BME280;36461;52.018;21.036;2024-03-23T10:33:51;98896.52;;;14.51;79.94
35507;BME280;36461;52.018;21.036;2024-03-23T10:36:22;98885.30;;;14.47;79.85
35507;BME280;36461;52.018;21.036;2024-03-23T10:38:51;98875.31;;;14.46;80.12
35507;BME280;36461;52.018;21.036;2024-03-23T10:41:20;98865.25;;;14.45;79.63
35507;BME280;36461;52.018;21.036;2024-03-23T10:43:49;98864.86;;;14.41;79.42
35507;BME280;36461;52.018;21.036;2024-03-23T10:46:17;98861.80;;;14.40;79.46
35507;BME280;36461;52.018;21.036;2024-03-23T10:48:45;98853.11;;;14.40;78.88
35507;BME280;36461;52.018;21.036;2024-03-23T10:51:14;98846.92;;;14.34;78.76
35507;BME280;36461;52.018;21.036;2024-03-23T10:53:42;98840.13;;;14.37;79.31
35507;BME280;36461;52.018;21.036;2024-03-23T10:56:11;98841.14;;;14.37;78.90
35507;BME280;36461;52.018;21.036;2024-03-23T10:58:46;98840.84;;;14.39;79.17
35507;BME280;36461;52.018;21.036;2024-03-23T11:01:15;98838.43;;;14.46;79.41
35507;BME280;36461;52.018;21.036;2024-03-23T11:03:47;98829.95;;;14.50;79.38
35507;BME280;36461;52.018;21.036;2024-03-23T11:06:37;98815.23;;;14.53;78.86
35507;BME280;36461;52.018;21.036;2024-03-23T11:14:51;98805.91;;;14.67;77.07
35507;BME280;36461;52.018;21.036;2024-03-23T11:17:24;98804.11;;;14.72;77.54
35507;BME280;36461;52.018;21.036;2024-03-23T11:19:58;98802.77;;;14.79;77.76
35507;BME280;36461;52.018;21.036;2024-03-23T11:25:33;98798.58;;;14.95;77.37
35507;BME280;36461;52.018;21.036;2024-03-23T11:28:11;98795.91;;;14.99;76.59
35507;BME280;36461;52.018;21.036;2024-03-23T11:30:39;98790.50;;;15.01;75.79
35507;BME280;36461;52.018;21.036;2024-03-23T11:33:08;98783.73;;;15.12;75.78
35507;BME280;36461;52.018;21.036;2024-03-23T11:35:40;98779.71;;;15.26;75.35
35507;BME280;36461;52.018;21.036;2024-03-23T11:38:13;98770.74;;;15.40;74.87
35507;BME280;36461;52.018;21.036;2024-03-23T11:40:42;98767.57;;;15.56;74.67
35507;BME280;36461;52.018;21.036;2024-03-23T11:43:15;98764.38;;;15.64;73.86
35507;BME280;36461;52.018;21.036;2024-03-23T11:45:46;98760.31;;;15.71;73.53
35507;BME280;36461;52.018;21.036;2024-03-23T11:48:16;98756.55;;;15.81;72.82
35507;BME280;36461;52.018;21.036;2024-03-23T11:50:50;98753.48;;;15.85;72.57
35507;BME280;36461;52.018;21.036;2024-03-23T11:53:19;98746.17;;;15.87;71.63
35507;BME280;36461;52.018;21.036;2024-03-23T11:55:56;98745.77;;;15.88;71.00
35507;BME280;36461;52.018;21.036;2024-03-23T11:58:25;98741.81;;;15.89;70.13
35507;BME280;36461;52.018;21.036;2024-03-23T12:01:01;98738.64;;;15.89;69.80
35507;BME280;36461;52.018;21.036;2024-03-23T12:03:31;98730.36;;;15.90;69.82
35507;BME280;36461;52.018;21.036;2024-03-23T12:06:04;98725.13;;;15.93;69.53
35507;BME280;36461;52.018;21.036;2024-03-23T12:08:34;98717.59;;;15.98;69.23
35507;BME280;36461;52.018;21.036;2024-03-23T12:11:12;98717.56;;;16.04;69.29
35507;BME280;36461;52.018;21.036;2024-03-23T12:13:43;98717.33;;;16.12;68.94
35507;BME280;36461;52.018;21.036;2024-03-23T12:16:19;98714.55;;;16.16;69.07
35507;BME280;36461;52.018;21.036;2024-03-23T12:18:49;98711.45;;;16.26;68.60
35507;BME280;36461;52.018;21.036;2024-03-23T12:21:18;98707.17;;;16.31;68.10
35507;BME280;36461;52.018;21.036;2024-03-23T12:23:47;98702.86;;;16.41;67.66
35507;BME280;36461;52.018;21.036;2024-03-23T12:26:16;98702.11;;;16.54;67.23
35507;BME280;36461;52.018;21.036;2024-03-23T12:28:46;98703.70;;;16.54;65.99
35507;BME280;36461;52.018;21.036;2024-03-23T12:31:14;98699.26;;;16.51;65.56
35507;BME280;36461;52.018;21.036;2024-03-23T12:33:42;98689.69;;;16.46;65.72
35507;BME280;36461;52.018;21.036;2024-03-23T12:36:10;98685.58;;;16.50;64.65
35507;BME280;36461;52.018;21.036;2024-03-23T12:38:38;98675.77;;;16.60;64.95
35507;BME280;36461;52.018;21.036;2024-03-23T12:41:06;98664.02;;;16.73;64.58
35507;BME280;36461;52.018;21.036;2024-03-23T12:43:34;98654.81;;;16.81;64.07
35507;BME280;36461;52.018;21.036;2024-03-23T12:46:05;98653.06;;;16.87;63.74
35507;BME280;36461;52.018;21.036;2024-03-23T12:48:33;98650.92;;;16.94;63.27
35507;BME280;36461;52.018;21.036;2024-03-23T12:51:01;98649.66;;;17.08;63.62
35507;BME280;36461;52.018;21.036;2024-03-23T12:53:29;98642.60;;;17.21;62.75
35507;BME280;36461;52.018;21.036;2024-03-23T12:55:57;98638.61;;;17.25;62.04
35507;BME280;36461;52.018;21.036;2024-03-23T12:58:26;98631.26;;;17.29;61.42
35507;BME280;36461;52.018;21.036;2024-03-23T13:00:54;98634.42;;;17.29;61.73
35507;BME280;36461;52.018;21.036;2024-03-23T13:03:22;98631.08;;;17.29;61.73
35507;BME280;36461;52.018;21.036;2024-03-23T13:05:53;98618.98;;;17.22;61.02
35507;BME280;36461;52.018;21.036;2024-03-23T13:08:21;98617.95;;;17.06;60.85
35507;BME280;36461;52.018;21.036;2024-03-23T13:10:54;98612.15;;;16.87;59.54
35507;BME280;36461;52.018;21.036;2024-03-23T13:13:23;98609.19;;;16.79;59.78
35507;BME280;36461;52.018;21.036;2024-03-23T13:15:51;98604.09;;;16.80;59.74
35507;BME280;36461;52.018;21.036;2024-03-23T13:18:19;98601.14;;;16.83;59.89
35507;BME280;36461;52.018;21.036;2024-03-23T13:20:47;98591.38;;;16.87;59.49
35507;BME280;36461;52.018;21.036;2024-03-23T13:23:15;98576.92;;;16.93;59.91
35507;BME280;36461;52.018;21.036;2024-03-23T13:25:50;98568.64;;;17.00;59.35
35507;BME280;36461;52.018;21.036;2024-03-23T13:28:23;98569.02;;;17.07;59.29
35507;BME280;36461;52.018;21.036;2024-03-23T13:30:56;98563.02;;;17.20;59.89
35507;BME280;36461;52.018;21.036;2024-03-23T13:33:25;98565.84;;;17.32;59.65
35507;BME280;36461;52.018;21.036;2024-03-23T13:35:54;98553.62;;;17.25;59.19
35507;BME280;36461;52.018;21.036;2024-03-23T13:38:23;98540.75;;;17.19;58.86
35507;BME280;36461;52.018;21.036;2024-03-23T13:40:53;98536.07;;;17.22;59.06
35507;BME280;36461;52.018;21.036;2024-03-23T13:43:21;98531.25;;;17.29;58.84
35507;BME280;36461;52.018;21.036;2024-03-23T13:45:56;98531.17;;;17.32;58.60
35507;BME280;36461;52.018;21.036;2024-03-23T13:48:25;98525.86;;;17.25;58.41
35507;BME280;36461;52.018;21.036;2024-03-23T13:51:11;98516.30;;;17.18;58.37
35507;BME280;36461;52.018;21.036;2024-03-23T13:53:41;98516.02;;;17.16;58.45
35507;BME280;36461;52.018;21.036;2024-03-23T13:56:09;98511.52;;;17.11;58.61
35507;BME280;36461;52.018;21.036;2024-03-23T13:58:37;98507.23;;;17.07;58.92
35507;BME280;36461;52.018;21.036;2024-03-23T14:01:07;98514.05;;;16.99;58.91
35507;BME280;36461;52.018;21.036;2024-03-23T14:03:35;98506.30;;;16.89;58.90
35507;BME280;36461;52.018;21.036;2024-03-23T14:06:03;98502.36;;;16.80;59.28
35507;BME280;36461;52.018;21.036;2024-03-23T14:08:31;98502.73;;;16.68;59.41
35507;BME280;36461;52.018;21.036;2024-03-23T14:11:02;98492.85;;;16.55;59.65